< < Back
Terminal Aerodrome Forecast


Current Version              Previous Versions:   1  2  3  4  5  6  7  8  9  

Terminal Aerodrome Forecast

976
FTUS42 KCAE 212000 AAB
TAFAGS
TAF AMD
KAGS 212048Z 2121/2218 29009G20KT P6SM SKC
     FM220000 32005KT P6SM FEW050=



Latest METAR

185
SAUS70 KWBC 220000 RRU
MTRAGS
METAR KAGS 212353Z 28005KT 10SM CLR 20/11 A2991 RMK AO2 SLP127 T02000106
10272 20194 53012


USA.gov is the U.S. government's official web portal to all federal, state and local government web resources and services.